Sea Bee 1 — V4XB — position and weather

sailwx.info

Track history (hours):
 
Tides and Currents Weather Stations Pressure Air Temp Water Temp Dewpoint Dewpoint Depression Visibility Wind Speed Wind Dir Waves Ship Positions

Sea Bee 1

Last reported at 2017-Sep-28 23:35 UTC. Time now 2017-Dec-12 06:32 UTC.
Position N 25°37' W 080°05'.
Warning: this ship's position is months out of date.

Length 30 m; draft 2 m.

Type: Pleasure craft. MMSI: 341598000.

Date/timePositionNaut miles runAvg speedWind from/ knotsBaromVisibWave heightAir tempDewpointWater temp
2017-Sep-28 23:35N 25°37' W 080°05'211.2
2017-Sep-28 23:26N 25°38' W 080°04'511.8
2017-Sep-28 23:00N 25°43' W 080°06'612.3
2017-Sep-28 22:30N 25°49' W 080°05'613.0
2017-Sep-28 22:00N 25°56' W 080°06'612.6
2017-Sep-28 21:30N 26°02' W 080°05'612.1
2017-Sep-28 21:00N 26°08' W 080°04'612.7
2017-Sep-28 20:30N 26°14' W 080°04'713.9
2017-Sep-28 20:00N 26°21' W 080°03'3012.4
2017-Sep-28 17:36N 26°51' W 079°60'111.8
2017-Sep-28 17:30N 26°52' W 079°60'612.4
2017-Sep-28 17:00N 26°58' W 080°01'  
2017-Sep-22 00:50N 35°11' W 076°35'0 0.0
2017-Sep-22 00:06N 35°11' W 076°35'0 0.1
2017-Sep-22 00:00N 35°11' W 076°35'94 2.8
2017-Sep-20 13:59N 36°43' W 076°15'0 0.4
2017-Sep-20 13:17N 36°43' W 076°15'1 5.1
2017-Sep-20 13:00N 36°44' W 076°17'3 5.8
2017-Sep-20 12:30N 36°47' W 076°18'3 5.3
2017-Sep-20 12:00N 36°49' W 076°17'1 1.4
2017-Sep-20 11:30N 36°50' W 076°18'0 0.0
2017-Sep-20 11:00N 36°50' W 076°18'0 0.0
2017-Sep-20 10:30N 36°50' W 076°18'0 0.0
2017-Sep-20 09:59N 36°50' W 076°18'0 0.0
2017-Sep-20 09:30N 36°50' W 076°18'0 0.0
2017-Sep-20 09:00N 36°50' W 076°18'0 0.0
2017-Sep-20 08:29N 36°50' W 076°18'0 0.0
2017-Sep-20 07:05N 36°50' W 076°18'0 0.0
2017-Sep-20 06:48N 36°50' W 076°18'0 0.0
2017-Sep-20 06:28N 36°50' W 076°18'0 0.0
2017-Sep-20 05:53N 36°50' W 076°18'0 0.0
2017-Sep-20 05:06N 36°50' W 076°18'0 0.0
2017-Sep-20 04:44N 36°50' W 076°18'0 0.0
2017-Sep-20 02:33N 36°50' W 076°18'0 0.1
2017-Sep-20 02:28N 36°50' W 076°18'0 0.0
2017-Sep-20 01:58N 36°50' W 076°18'0 0.0
2017-Sep-20 01:30N 36°50' W 076°18'0 0.0
2017-Sep-20 01:00N 36°50' W 076°18'0 0.0
2017-Sep-20 00:30N 36°50' W 076°18'0 0.0
2017-Sep-20 00:00N 36°50' W 076°18'0 0.0
2017-Sep-19 23:30N 36°50' W 076°18'0 0.0
2017-Sep-19 23:00N 36°50' W 076°18'0 0.0
2017-Sep-19 22:30N 36°50' W 076°18'0 0.0
2017-Sep-19 22:00N 36°50' W 076°18'0 0.0
2017-Sep-19 21:30N 36°50' W 076°18'0 0.0
2017-Sep-19 21:00N 36°50' W 076°18'0 0.0
2017-Sep-19 20:30N 36°50' W 076°18'0 0.0
2017-Sep-19 20:00N 36°50' W 076°18'0 0.0
2017-Sep-19 19:30N 36°50' W 076°18'0 0.0
2017-Sep-19 19:00N 36°50' W 076°18'0 0.0
2017-Sep-19 18:30N 36°50' W 076°18'0 0.0
2017-Sep-19 18:00N 36°50' W 076°18'0 0.0
2017-Sep-19 17:30N 36°50' W 076°18'0 0.0
2017-Sep-19 17:00N 36°50' W 076°18'0 0.0
2017-Sep-19 16:30N 36°50' W 076°18'0 0.0
2017-Sep-19 16:00N 36°50' W 076°18'0 0.0
2017-Sep-19 15:30N 36°50' W 076°18'0 0.0
2017-Sep-19 15:00N 36°50' W 076°18'0 0.0
2017-Sep-19 14:30N 36°50' W 076°18'0 0.0
2017-Sep-19 14:00N 36°50' W 076°18'0 0.0
2017-Sep-19 13:30N 36°50' W 076°18'0 0.0
2017-Sep-19 13:00N 36°50' W 076°18'0 0.0
2017-Sep-19 12:30N 36°50' W 076°18'0 0.0
2017-Sep-19 12:00N 36°50' W 076°18'0 0.0
2017-Sep-19 11:30N 36°50' W 076°18'0 0.0
2017-Sep-19 11:00N 36°50' W 076°18'0 0.0
2017-Sep-19 10:30N 36°50' W 076°18'0 0.0
2017-Sep-19 10:00N 36°50' W 076°18'0 0.0
2017-Sep-19 09:30N 36°50' W 076°18'0 0.0
2017-Sep-19 09:00N 36°50' W 076°18'0 0.1
2017-Sep-19 08:30N 36°50' W 076°18'0 0.1
2017-Sep-19 08:00N 36°50' W 076°18'0 0.0
2017-Sep-19 07:30N 36°50' W 076°18'0 0.0
2017-Sep-19 07:00N 36°50' W 076°18'0 0.0
2017-Sep-19 06:30N 36°50' W 076°18'0 0.0
2017-Sep-19 06:00N 36°50' W 076°18'0 0.0
2017-Sep-19 05:30N 36°50' W 076°18'0 0.0
2017-Sep-19 05:00N 36°50' W 076°18'0 0.0
2017-Sep-19 04:30N 36°50' W 076°18'0 0.0
2017-Sep-19 04:00N 36°50' W 076°18'0 0.0
2017-Sep-19 03:30N 36°50' W 076°18'0 0.0
2017-Sep-19 03:00N 36°50' W 076°18'0 0.0
2017-Sep-19 02:30N 36°50' W 076°18'0 0.0
2017-Sep-19 02:00N 36°50' W 076°18'0 0.0
2017-Sep-19 01:30N 36°50' W 076°18'0 0.0
2017-Sep-19 01:00N 36°50' W 076°18'0 0.0
2017-Sep-19 00:30N 36°50' W 076°18'0 0.0
2017-Sep-19 00:00N 36°50' W 076°18'  
Track history (hours):
 
Tides and Currents Weather Stations Pressure Air Temp Water Temp Dewpoint Dewpoint Depression Visibility Wind Speed Wind Dir Waves Ship Positions

Sea Bee 1

Last reported at 2017-Sep-28 23:35 UTC. Time now 2017-Dec-12 06:32 UTC.
Position N 25°37' W 080°05'.
Warning: this ship's position is months out of date.

Length 30 m; draft 2 m.

Type: Pleasure craft. MMSI: 341598000.

Date/timePositionNaut miles runAvg speedWind from/ knotsBaromVisibWave heightAir tempDewpointWater temp
2017-Sep-28 23:35N 25°37' W 080°05'211.2
2017-Sep-28 23:26N 25°38' W 080°04'511.8
2017-Sep-28 23:00N 25°43' W 080°06'612.3
2017-Sep-28 22:30N 25°49' W 080°05'613.0
2017-Sep-28 22:00N 25°56' W 080°06'612.6
2017-Sep-28 21:30N 26°02' W 080°05'612.1
2017-Sep-28 21:00N 26°08' W 080°04'612.7
2017-Sep-28 20:30N 26°14' W 080°04'713.9
2017-Sep-28 20:00N 26°21' W 080°03'3012.4
2017-Sep-28 17:36N 26°51' W 079°60'111.8
2017-Sep-28 17:30N 26°52' W 079°60'612.4
2017-Sep-28 17:00N 26°58' W 080°01'  
2017-Sep-22 00:50N 35°11' W 076°35'0 0.0
2017-Sep-22 00:06N 35°11' W 076°35'0 0.1
2017-Sep-22 00:00N 35°11' W 076°35'94 2.8
2017-Sep-20 13:59N 36°43' W 076°15'0 0.4
2017-Sep-20 13:17N 36°43' W 076°15'1 5.1
2017-Sep-20 13:00N 36°44' W 076°17'3 5.8
2017-Sep-20 12:30N 36°47' W 076°18'3 5.3
2017-Sep-20 12:00N 36°49' W 076°17'1 1.4
2017-Sep-20 11:30N 36°50' W 076°18'0 0.0
2017-Sep-20 11:00N 36°50' W 076°18'0 0.0
2017-Sep-20 10:30N 36°50' W 076°18'0 0.0
2017-Sep-20 09:59N 36°50' W 076°18'0 0.0
2017-Sep-20 09:30N 36°50' W 076°18'0 0.0
2017-Sep-20 09:00N 36°50' W 076°18'0 0.0
2017-Sep-20 08:29N 36°50' W 076°18'0 0.0
2017-Sep-20 07:05N 36°50' W 076°18'0 0.0
2017-Sep-20 06:48N 36°50' W 076°18'0 0.0
2017-Sep-20 06:28N 36°50' W 076°18'0 0.0
2017-Sep-20 05:53N 36°50' W 076°18'0 0.0
2017-Sep-20 05:06N 36°50' W 076°18'0 0.0
2017-Sep-20 04:44N 36°50' W 076°18'0 0.0
2017-Sep-20 02:33N 36°50' W 076°18'0 0.1
2017-Sep-20 02:28N 36°50' W 076°18'0 0.0
2017-Sep-20 01:58N 36°50' W 076°18'0 0.0
2017-Sep-20 01:30N 36°50' W 076°18'0 0.0
2017-Sep-20 01:00N 36°50' W 076°18'0 0.0
2017-Sep-20 00:30N 36°50' W 076°18'0 0.0
2017-Sep-20 00:00N 36°50' W 076°18'0 0.0
2017-Sep-19 23:30N 36°50' W 076°18'0 0.0
2017-Sep-19 23:00N 36°50' W 076°18'0 0.0
2017-Sep-19 22:30N 36°50' W 076°18'0 0.0
2017-Sep-19 22:00N 36°50' W 076°18'0 0.0
2017-Sep-19 21:30N 36°50' W 076°18'0 0.0
2017-Sep-19 21:00N 36°50' W 076°18'0 0.0
2017-Sep-19 20:30N 36°50' W 076°18'0 0.0
2017-Sep-19 20:00N 36°50' W 076°18'0 0.0
2017-Sep-19 19:30N 36°50' W 076°18'0 0.0
2017-Sep-19 19:00N 36°50' W 076°18'0 0.0
2017-Sep-19 18:30N 36°50' W 076°18'0 0.0
2017-Sep-19 18:00N 36°50' W 076°18'0 0.0
2017-Sep-19 17:30N 36°50' W 076°18'0 0.0
2017-Sep-19 17:00N 36°50' W 076°18'0 0.0
2017-Sep-19 16:30N 36°50' W 076°18'0 0.0
2017-Sep-19 16:00N 36°50' W 076°18'0 0.0
2017-Sep-19 15:30N 36°50' W 076°18'0 0.0
2017-Sep-19 15:00N 36°50' W 076°18'0 0.0
2017-Sep-19 14:30N 36°50' W 076°18'0 0.0
2017-Sep-19 14:00N 36°50' W 076°18'0 0.0
2017-Sep-19 13:30N 36°50' W 076°18'0 0.0
2017-Sep-19 13:00N 36°50' W 076°18'0 0.0
2017-Sep-19 12:30N 36°50' W 076°18'0 0.0
2017-Sep-19 12:00N 36°50' W 076°18'0 0.0
2017-Sep-19 11:30N 36°50' W 076°18'0 0.0
2017-Sep-19 11:00N 36°50' W 076°18'0 0.0
2017-Sep-19 10:30N 36°50' W 076°18'0 0.0
2017-Sep-19 10:00N 36°50' W 076°18'0 0.0
2017-Sep-19 09:30N 36°50' W 076°18'0 0.0
2017-Sep-19 09:00N 36°50' W 076°18'0 0.1
2017-Sep-19 08:30N 36°50' W 076°18'0 0.1
2017-Sep-19 08:00N 36°50' W 076°18'0 0.0
2017-Sep-19 07:30N 36°50' W 076°18'0 0.0
2017-Sep-19 07:00N 36°50' W 076°18'0 0.0
2017-Sep-19 06:30N 36°50' W 076°18'0 0.0
2017-Sep-19 06:00N 36°50' W 076°18'0 0.0
2017-Sep-19 05:30N 36°50' W 076°18'0 0.0
2017-Sep-19 05:00N 36°50' W 076°18'0 0.0
2017-Sep-19 04:30N 36°50' W 076°18'0 0.0
2017-Sep-19 04:00N 36°50' W 076°18'0 0.0
2017-Sep-19 03:30N 36°50' W 076°18'0 0.0
2017-Sep-19 03:00N 36°50' W 076°18'0 0.0
2017-Sep-19 02:30N 36°50' W 076°18'0 0.0
2017-Sep-19 02:00N 36°50' W 076°18'0 0.0
2017-Sep-19 01:30N 36°50' W 076°18'0 0.0
2017-Sep-19 01:00N 36°50' W 076°18'0 0.0
2017-Sep-19 00:30N 36°50' W 076°18'0 0.0
2017-Sep-19 00:00N 36°50' W 076°18'  

Dump ship's entire track history